Time;durP1;ratioP1;P1;durP2;ratioP2;P2;SDS_P1;SDS_P2;PMS_P1;PMS_P2;Temp;Humidity;BMP_temperature;BMP_pressure;BME280_temperature;BME280_humidity;BME280_pressure;Samples;Min_cycle;Max_cycle;Signal;HPM_P1;HPM_P2
2022/12/07 00:01:38;;;;;;;9.53;5.93;;;2.10;99.90;;;;;;5054764;28;20207;-82
2022/12/07 00:04:04;;;;;;;7.57;5.67;;;2.10;99.90;;;;;;5054181;28;20199;-83
2022/12/07 00:06:39;;;;;;;8.93;5.93;;;2.10;99.90;;;;;;5054561;28;20180;-82
2022/12/07 00:09:06;;;;;;;8.33;5.43;;;2.10;99.90;;;;;;5054587;28;20175;-82
2022/12/07 00:11:32;;;;;;;10.37;5.70;;;2.10;99.90;;;;;;5055484;28;20181;-82
2022/12/07 00:14:01;;;;;;;8.37;5.67;;;2.10;99.90;;;;;;5055352;28;20278;-82
2022/12/07 00:16:29;;;;;;;7.83;5.27;;;2.10;99.90;;;;;;5054554;28;20201;-82
2022/12/07 00:18:55;;;;;;;7.83;4.80;;;2.20;99.90;;;;;;5054310;28;20184;-82
2022/12/07 00:21:27;;;;;;;8.27;5.77;;;2.20;99.90;;;;;;5054096;28;20207;-83
2022/12/07 00:23:54;;;;;;;8.27;5.53;;;2.20;99.90;;;;;;5054065;28;20192;-83
2022/12/07 00:26:26;;;;;;;8.53;5.53;;;2.20;99.90;;;;;;5055137;28;20670;-82
2022/12/07 00:28:54;;;;;;;7.77;5.40;;;2.10;99.90;;;;;;5055696;28;20524;-82
2022/12/07 00:31:23;;;;;;;8.13;5.90;;;2.10;99.90;;;;;;5055110;28;20183;-82
2022/12/07 00:33:49;;;;;;;9.10;5.70;;;2.10;99.90;;;;;;5054979;28;20198;-82
2022/12/07 00:36:18;;;;;;;9.80;6.07;;;2.10;99.90;;;;;;5053782;28;20546;-82
2022/12/07 00:38:44;;;;;;;7.60;5.40;;;2.10;99.90;;;;;;5055039;28;20180;-82
2022/12/07 00:41:13;;;;;;;10.87;6.40;;;2.10;99.90;;;;;;5054006;28;20179;-82
2022/12/07 00:43:39;;;;;;;7.60;5.40;;;2.10;99.90;;;;;;5054847;28;20181;-82
2022/12/07 00:46:05;;;;;;;7.80;5.63;;;2.10;99.90;;;;;;5053140;28;20257;-82
2022/12/07 00:48:31;;;;;;;8.20;5.37;;;2.10;99.90;;;;;;5053708;28;20179;-82
2022/12/07 00:50:57;;;;;;;8.77;6.27;;;2.10;99.90;;;;;;5054831;28;20175;-82
2022/12/07 00:53:23;;;;;;;9.60;6.37;;;2.10;99.90;;;;;;5053365;28;20259;-82
2022/12/07 00:55:49;;;;;;;8.20;5.70;;;2.10;99.90;;;;;;5065595;22;20313;-81
2022/12/07 00:58:15;;;;;;;9.87;6.70;;;2.00;99.90;;;;;;5054827;28;20257;-81
2022/12/07 01:00:42;;;;;;;10.57;7.20;;;2.00;99.90;;;;;;5037129;28;20171;-82
2022/12/07 01:03:10;;;;;;;9.90;6.73;;;2.00;99.90;;;;;;5036931;28;20237;-81
2022/12/07 01:05:36;;;;;;;9.90;6.87;;;2.00;99.90;;;;;;5037190;28;20280;-81
2022/12/07 01:08:02;;;;;;;10.07;6.70;;;2.00;99.90;;;;;;5036962;28;20737;-81
2022/12/07 01:10:28;;;;;;;9.43;6.43;;;2.00;99.90;;;;;;5055117;28;20170;-81
2022/12/07 01:12:54;;;;;;;12.30;7.13;;;2.00;99.90;;;;;;5036579;28;20676;-81
2022/12/07 01:15:19;;;;;;;10.10;6.93;;;2.00;99.90;;;;;;5036771;28;20190;-82
2022/12/07 01:17:45;;;;;;;12.00;7.33;;;2.10;99.90;;;;;;5054538;28;20185;-81
2022/12/07 01:20:11;;;;;;;12.33;7.40;;;2.00;99.90;;;;;;5036904;28;20175;-81
2022/12/07 01:22:38;;;;;;;11.13;7.07;;;2.00;99.90;;;;;;5054296;28;20213;-81
2022/12/07 01:25:05;;;;;;;12.73;7.57;;;1.90;99.90;;;;;;5036512;28;20194;-81
2022/12/07 01:27:32;;;;;;;15.40;8.53;;;1.90;99.90;;;;;;5054565;28;20182;-81
2022/12/07 01:29:58;;;;;;;13.67;8.40;;;1.90;99.90;;;;;;5054604;28;20518;-82
2022/12/07 01:32:23;;;;;;;13.47;9.03;;;1.90;99.90;;;;;;5036331;28;20181;-81
2022/12/07 01:34:49;;;;;;;12.50;7.83;;;1.90;99.90;;;;;;5036441;28;20201;-81
2022/12/07 01:37:14;;;;;;;12.97;8.10;;;1.90;99.90;;;;;;5036605;28;20182;-81
2022/12/07 01:39:41;;;;;;;13.83;8.40;;;1.80;99.90;;;;;;5054046;28;20227;-81
2022/12/07 01:42:12;;;;;;;12.93;8.23;;;1.90;99.90;;;;;;5054127;28;20209;-80
2022/12/07 01:45:16;;;;;;;15.00;8.90;;;1.90;99.90;;;;;;5036369;28;20201;-81
2022/12/07 01:47:47;;;;;;;14.73;8.60;;;1.90;99.90;;;;;;5036276;28;20205;-81
2022/12/07 01:50:13;;;;;;;14.40;8.80;;;1.90;99.90;;;;;;5036124;28;20185;-81
2022/12/07 01:52:40;;;;;;;16.43;9.37;;;1.90;99.90;;;;;;5036200;28;20186;-81
2022/12/07 01:55:13;;;;;;;17.93;10.60;;;2.00;99.90;;;;;;5054081;28;20221;-81
2022/12/07 01:57:48;;;;;;;18.40;10.57;;;1.90;99.90;;;;;;5053135;28;20185;-81
2022/12/07 02:00:15;;;;;;;20.10;11.20;;;1.90;99.90;;;;;;5054174;28;20217;-81
2022/12/07 02:03:03;;;;;;;18.43;10.57;;;1.90;99.90;;;;;;5035358;28;20214;-81
2022/12/07 02:05:29;;;;;;;18.93;10.80;;;1.90;99.90;;;;;;5053430;28;20238;-81
2022/12/07 02:07:56;;;;;;;21.73;11.53;;;1.90;99.90;;;;;;5035623;28;20181;-80
2022/12/07 02:10:24;;;;;;;19.37;11.10;;;1.90;99.90;;;;;;5035550;28;20656;-81
2022/12/07 02:13:00;;;;;;;20.27;11.13;;;1.90;99.90;;;;;;5053437;28;20182;-81
2022/12/07 02:15:34;;;;;;;21.10;11.13;;;1.90;99.90;;;;;;5035616;28;20225;-80
2022/12/07 02:18:05;;;;;;;22.57;12.17;;;2.00;99.90;;;;;;5035445;28;20179;-81
2022/12/07 02:20:40;;;;;;;20.93;11.77;;;1.90;99.90;;;;;;5053297;28;20250;-81
2022/12/07 02:23:11;;;;;;;21.53;12.07;;;1.90;99.90;;;;;;5052895;28;20197;-81
2022/12/07 02:26:18;;;;;;;21.20;11.77;;;1.90;99.90;;;;;;5053406;28;20190;-81
2022/12/07 02:29:10;;;;;;;19.70;11.53;;;2.00;99.90;;;;;;5027663;28;20210;-81
2022/12/07 02:31:40;;;;;;;21.00;12.00;;;2.00;99.90;;;;;;5053638;28;20186;-81
2022/12/07 02:34:15;;;;;;;20.07;11.17;;;2.00;99.90;;;;;;5034947;28;20178;-81
2022/12/07 02:36:50;;;;;;;21.40;10.73;;;2.00;99.90;;;;;;5053168;28;20196;-81
2022/12/07 02:39:22;;;;;;;18.67;11.00;;;2.10;99.90;;;;;;5035322;28;20170;-81
2022/12/07 02:41:55;;;;;;;18.87;11.40;;;2.10;99.90;;;;;;5053139;28;20209;-81
2022/12/07 02:44:26;;;;;;;19.87;11.20;;;2.10;99.90;;;;;;5034987;28;20202;-80
2022/12/07 02:46:55;;;;;;;20.80;11.57;;;2.20;99.90;;;;;;5053018;28;20558;-81
2022/12/07 02:49:23;;;;;;;20.47;11.40;;;2.20;99.90;;;;;;5052659;28;20267;-78
2022/12/07 02:51:49;;;;;;;20.53;11.37;;;2.20;99.90;;;;;;5053140;28;20205;-81
2022/12/07 02:54:17;;;;;;;21.03;10.87;;;2.20;99.90;;;;;;5034852;28;20226;-81
2022/12/07 02:56:44;;;;;;;19.53;10.60;;;2.20;99.90;;;;;;5052930;28;20289;-81
2022/12/07 02:59:28;;;;;;;18.50;10.73;;;2.20;99.90;;;;;;5052576;28;20201;-82
2022/12/07 03:02:36;;;;;;;21.20;11.17;;;2.20;99.90;;;;;;5052603;28;20195;-81
2022/12/07 03:05:25;;;;;;;21.63;11.13;;;2.30;99.90;;;;;;5034837;28;20191;-82
2022/12/07 03:08:27;;;;;;;18.10;10.50;;;2.30;99.90;;;;;;5034786;28;20171;-81
2022/12/07 03:11:13;;;;;;;17.90;10.97;;;2.40;99.90;;;;;;5052766;28;20186;-81
2022/12/07 03:13:40;;;;;;;20.33;11.23;;;2.40;99.90;;;;;;5052822;28;20573;-81
2022/12/07 03:16:16;;;;;;;19.47;11.20;;;2.40;99.90;;;;;;5052600;28;20276;-81
2022/12/07 03:18:55;;;;;;;21.73;11.80;;;2.40;99.90;;;;;;5034658;28;20175;-81
2022/12/07 03:21:27;;;;;;;20.53;11.53;;;2.40;99.90;;;;;;5052704;28;20195;-82
2022/12/07 03:23:58;;;;;;;18.77;10.47;;;2.40;99.90;;;;;;5034866;28;20547;-81
2022/12/07 03:26:33;;;;;;;22.53;12.93;;;2.40;99.90;;;;;;5034798;28;20175;-81
2022/12/07 03:29:07;;;;;;;20.47;11.33;;;2.40;99.90;;;;;;5052637;28;20224;-82
2022/12/07 03:31:38;;;;;;;18.57;11.27;;;2.50;99.90;;;;;;5034831;28;20221;-81
2022/12/07 03:34:13;;;;;;;20.23;10.70;;;2.50;99.90;;;;;;5052007;28;20263;-81
2022/12/07 03:36:54;;;;;;;18.93;11.50;;;2.50;99.90;;;;;;5034586;28;20757;-81
2022/12/07 03:39:20;;;;;;;18.87;10.87;;;2.50;99.90;;;;;;5052384;28;20177;-81
2022/12/07 03:41:45;;;;;;;19.73;11.60;;;2.50;99.90;;;;;;5052201;28;20622;-81
2022/12/07 03:44:12;;;;;;;18.83;10.70;;;2.60;99.90;;;;;;5052310;28;20195;-81
2022/12/07 03:46:47;;;;;;;20.27;11.47;;;2.60;99.90;;;;;;5052446;28;20169;-82
2022/12/07 03:49:21;;;;;;;20.40;11.10;;;2.60;99.90;;;;;;5034410;28;20183;-81
2022/12/07 03:52:10;;;;;;;19.40;10.90;;;2.60;99.90;;;;;;5034221;28;20193;-81
2022/12/07 03:54:51;;;;;;;19.23;10.90;;;2.60;99.90;;;;;;5023670;28;20283;-81
2022/12/07 03:57:18;;;;;;;17.97;11.27;;;2.60;99.90;;;;;;5034465;28;20271;-81
2022/12/07 03:59:45;;;;;;;19.40;10.57;;;2.60;99.90;;;;;;5052125;28;20618;-81
2022/12/07 04:02:13;;;;;;;20.13;11.20;;;2.60;99.90;;;;;;5034311;28;20557;-81
2022/12/07 04:04:38;;;;;;;18.73;10.00;;;2.60;99.90;;;;;;5034297;28;20195;-81
2022/12/07 04:07:04;;;;;;;16.33;10.97;;;2.60;99.90;;;;;;5034481;28;20179;-80
2022/12/07 04:09:30;;;;;;;17.00;10.53;;;2.60;99.90;;;;;;5034415;28;20175;-81
2022/12/07 04:11:55;;;;;;;18.47;10.67;;;2.60;99.90;;;;;;5034318;28;20233;-81
2022/12/07 04:14:21;;;;;;;19.00;10.70;;;2.50;99.90;;;;;;5034022;28;20210;-82
2022/12/07 04:16:58;;;;;;;17.43;10.90;;;2.60;99.90;;;;;;5034323;28;20187;-81
2022/12/07 04:19:27;;;;;;;16.70;10.87;;;2.60;99.90;;;;;;5034181;28;20185;-81
2022/12/07 04:21:53;;;;;;;16.70;10.40;;;2.60;99.90;;;;;;5054396;28;20213;-81
2022/12/07 04:24:19;;;;;;;17.80;10.17;;;2.60;99.90;;;;;;5037943;28;20289;-81
2022/12/07 04:26:45;;;;;;;16.60;10.27;;;2.60;99.90;;;;;;5056177;28;20190;-81
2022/12/07 04:29:11;;;;;;;19.27;11.23;;;2.60;99.90;;;;;;5037692;28;20176;-81
2022/12/07 04:31:37;;;;;;;18.03;10.97;;;2.60;99.90;;;;;;5037881;28;20180;-81
2022/12/07 04:34:03;;;;;;;18.37;11.17;;;2.60;99.90;;;;;;5055495;28;20278;-80
2022/12/07 04:36:30;;;;;;;18.57;10.77;;;2.60;99.90;;;;;;5037632;28;20647;-81
2022/12/07 04:38:56;;;;;;;21.97;11.80;;;2.60;99.90;;;;;;5055791;28;20187;-81
2022/12/07 04:41:26;;;;;;;19.23;11.27;;;2.50;99.90;;;;;;5055345;28;20184;-81
2022/12/07 04:43:54;;;;;;;16.67;10.70;;;2.60;99.90;;;;;;5055627;28;20183;-81
2022/12/07 04:46:20;;;;;;;17.30;10.60;;;2.50;99.90;;;;;;5037653;28;20178;-81
2022/12/07 04:48:46;;;;;;;16.73;10.43;;;2.60;99.90;;;;;;5037750;28;20544;-81
2022/12/07 04:51:11;;;;;;;20.23;11.47;;;2.60;99.90;;;;;;5054917;28;20199;-81
2022/12/07 04:53:37;;;;;;;18.50;11.70;;;2.60;99.90;;;;;;5037183;28;20175;-81
2022/12/07 04:56:02;;;;;;;18.37;10.57;;;2.50;99.90;;;;;;5054974;28;20220;-81
2022/12/07 04:58:28;;;;;;;21.50;12.27;;;2.50;99.90;;;;;;5037291;28;20177;-81
2022/12/07 05:00:55;;;;;;;18.70;11.23;;;2.50;99.90;;;;;;5037390;28;20211;-81
2022/12/07 05:03:20;;;;;;;20.87;12.13;;;2.50;99.90;;;;;;5037043;28;20211;-81
2022/12/07 05:05:46;;;;;;;20.37;10.70;;;2.60;99.90;;;;;;5037255;28;20199;-81
2022/12/07 05:08:11;;;;;;;19.17;11.67;;;2.50;99.90;;;;;;5037171;28;20221;-81
2022/12/07 05:10:37;;;;;;;20.70;11.50;;;2.50;99.90;;;;;;5055161;28;20214;-81
2022/12/07 05:13:03;;;;;;;19.83;11.43;;;2.50;99.90;;;;;;5054822;28;20410;-81
2022/12/07 05:15:28;;;;;;;21.17;11.77;;;2.50;99.90;;;;;;5037052;28;20579;-81
2022/12/07 05:17:54;;;;;;;19.70;12.20;;;2.50;99.90;;;;;;5054971;28;20218;-81
2022/12/07 05:20:20;;;;;;;17.83;10.87;;;2.50;99.90;;;;;;5037137;28;20228;-81
2022/12/07 05:22:45;;;;;;;20.13;11.07;;;2.60;99.90;;;;;;5036438;28;20208;-81
2022/12/07 05:25:11;;;;;;;17.67;10.47;;;2.60;99.90;;;;;;5036858;28;20199;-81
2022/12/07 05:27:36;;;;;;;19.00;10.83;;;2.60;99.90;;;;;;5036834;28;20189;-81
2022/12/07 05:30:03;;;;;;;18.73;10.97;;;2.60;99.90;;;;;;5036955;28;20218;-82
2022/12/07 05:32:28;;;;;;;18.50;10.87;;;2.60;99.90;;;;;;5054165;28;20183;-81
2022/12/07 05:34:54;;;;;;;20.10;12.43;;;2.60;99.90;;;;;;5036702;28;20685;-81
2022/12/07 05:37:20;;;;;;;18.37;10.87;;;2.60;99.90;;;;;;5036538;28;20179;-81
2022/12/07 05:39:45;;;;;;;19.50;11.53;;;2.60;99.90;;;;;;5036504;28;20267;-81
2022/12/07 05:42:14;;;;;;;19.83;11.23;;;2.60;99.90;;;;;;5036304;28;20289;-80
2022/12/07 05:44:45;;;;;;;16.77;10.60;;;2.70;99.90;;;;;;5054273;28;20627;-81
2022/12/07 05:47:12;;;;;;;18.07;10.87;;;2.70;99.90;;;;;;5036918;28;20186;-81
2022/12/07 05:49:38;;;;;;;19.07;10.90;;;2.70;99.90;;;;;;5035965;28;20168;-81
2022/12/07 05:52:04;;;;;;;18.70;10.70;;;2.60;99.90;;;;;;5054586;28;20176;-81
2022/12/07 05:54:30;;;;;;;20.67;12.07;;;2.60;99.90;;;;;;5054020;28;20335;-81
2022/12/07 05:56:55;;;;;;;19.73;10.77;;;2.70;99.90;;;;;;5036086;28;20191;-81
2022/12/07 05:59:24;;;;;;;18.53;10.80;;;2.70;99.90;;;;;;5053969;28;20170;-81
2022/12/07 06:01:55;;;;;;;17.27;10.67;;;2.70;99.90;;;;;;5035871;28;20328;-79
2022/12/07 06:04:22;;;;;;;18.27;10.47;;;2.70;99.90;;;;;;5053762;28;20334;-78
2022/12/07 06:06:48;;;;;;;33.17;16.53;;;2.90;99.90;;;;;;5035920;28;20198;-80
2022/12/07 06:09:14;;;;;;;17.97;10.63;;;3.20;99.90;;;;;;5054025;28;20259;-80
2022/12/07 06:14:25;;;;;;;15.50;9.57;;;3.40;99.90;;;;;;5053616;28;20621;-80
2022/12/07 06:16:50;;;;;;;12.93;8.47;;;3.30;99.90;;;;;;5035798;28;20639;-80
2022/12/07 06:19:16;;;;;;;14.27;9.40;;;3.10;99.90;;;;;;5035725;28;20643;-79
2022/12/07 06:21:42;;;;;;;15.13;9.43;;;3.40;99.90;;;;;;5036017;28;20197;-82
2022/12/07 06:24:11;;;;;;;13.40;8.37;;;3.50;99.90;;;;;;5053494;28;20264;-81
2022/12/07 06:26:36;;;;;;;16.70;10.77;;;3.40;99.90;;;;;;5035743;28;20263;-83
2022/12/07 06:29:02;;;;;;;15.53;9.33;;;3.30;99.90;;;;;;5035769;28;20236;-82
2022/12/07 06:31:27;;;;;;;15.50;10.80;;;3.20;99.90;;;;;;5035863;28;20199;-82
2022/12/07 06:34:00;;;;;;;15.70;9.67;;;3.20;99.90;;;;;;5035863;28;20254;-82
2022/12/07 06:36:26;;;;;;;15.13;9.07;;;3.10;99.90;;;;;;5053478;28;20173;-82
2022/12/07 06:38:52;;;;;;;13.17;9.03;;;3.00;99.90;;;;;;5035594;28;20183;-82
2022/12/07 06:41:18;;;;;;;14.63;8.80;;;2.90;99.90;;;;;;5054432;28;20229;-80
2022/12/07 06:43:44;;;;;;;13.23;8.73;;;2.90;99.90;;;;;;5053963;28;20185;-82
2022/12/07 06:46:09;;;;;;;14.63;8.90;;;2.90;99.90;;;;;;5036730;28;20583;-81
2022/12/07 06:48:35;;;;;;;12.70;8.57;;;2.90;99.90;;;;;;5055554;28;20176;-80
2022/12/07 06:51:00;;;;;;;13.87;8.83;;;3.00;99.90;;;;;;5037461;28;20169;-80
2022/12/07 06:53:26;;;;;;;13.53;8.30;;;3.00;99.90;;;;;;5036751;28;20224;-80
2022/12/07 06:55:52;;;;;;;13.97;8.83;;;3.00;99.90;;;;;;5052765;22;20228;-82
2022/12/07 06:58:18;;;;;;;18.60;13.90;;;3.00;99.90;;;;;;5020346;28;20177;-81
2022/12/07 07:00:44;;;;;;;14.27;9.33;;;3.00;99.90;;;;;;5019432;28;20181;-82
2022/12/07 07:03:10;;;;;;;21.33;14.20;;;2.90;99.90;;;;;;5016535;28;20210;-83
2022/12/07 07:05:36;;;;;;;13.40;9.50;;;3.00;99.90;;;;;;5015682;28;20687;-82
2022/12/07 07:08:02;;;;;;;42.30;25.77;;;3.00;99.90;;;;;;5034405;28;20516;-82
2022/12/07 07:10:28;;;;;;;18.13;11.47;;;3.00;99.90;;;;;;5034342;28;20707;-82
2022/12/07 07:12:53;;;;;;;17.97;11.83;;;3.00;99.90;;;;;;5034252;28;20216;-82
2022/12/07 07:15:19;;;;;;;16.80;10.03;;;3.00;99.90;;;;;;5016432;28;20201;-81
2022/12/07 07:17:45;;;;;;;28.07;18.37;;;3.00;99.90;;;;;;5017358;28;20660;-83
2022/12/07 07:20:11;;;;;;;14.77;10.23;;;3.00;99.90;;;;;;5034414;28;20221;-82
2022/12/07 07:22:36;;;;;;;19.07;9.60;;;2.90;99.90;;;;;;5017006;28;20209;-81
2022/12/07 07:25:02;;;;;;;14.07;8.23;;;3.00;99.90;;;;;;5034631;28;20569;-82
2022/12/07 07:27:28;;;;;;;35.70;20.20;;;3.00;99.90;;;;;;5034383;28;20176;-82
2022/12/07 07:29:53;;;;;;;14.80;9.50;;;3.00;99.90;;;;;;5016663;28;20174;-81
2022/12/07 07:32:19;;;;;;;12.83;8.17;;;3.00;99.90;;;;;;5016671;28;20176;-82
2022/12/07 07:34:44;;;;;;;11.97;8.33;;;3.00;99.90;;;;;;5016801;28;20191;-82
2022/12/07 07:37:12;;;;;;;12.83;9.13;;;2.90;99.90;;;;;;5034678;28;20188;-82
2022/12/07 07:39:38;;;;;;;12.80;8.33;;;2.90;99.90;;;;;;5016957;28;20185;-83
2022/12/07 07:42:04;;;;;;;13.97;9.00;;;2.90;99.90;;;;;;5016666;28;20207;-82
2022/12/07 07:44:29;;;;;;;13.60;8.50;;;3.00;99.90;;;;;;5034118;28;20174;-82
2022/12/07 07:46:55;;;;;;;15.03;9.60;;;3.00;99.90;;;;;;5016822;28;20178;-82
2022/12/07 07:49:21;;;;;;;13.47;9.30;;;3.00;99.90;;;;;;5034548;28;20208;-81
2022/12/07 07:51:46;;;;;;;11.77;8.40;;;2.90;99.90;;;;;;5017278;28;20178;-82
2022/12/07 07:54:12;;;;;;;13.87;9.33;;;3.00;99.90;;;;;;5017358;28;20182;-82
2022/12/07 07:56:37;;;;;;;11.93;7.67;;;2.90;99.90;;;;;;5037549;28;20219;-82
2022/12/07 07:59:03;;;;;;;11.57;7.23;;;3.00;99.90;;;;;;5020418;28;20173;-82
2022/12/07 08:01:28;;;;;;;10.73;7.93;;;3.00;99.90;;;;;;5020965;28;20173;-84
2022/12/07 08:03:54;;;;;;;11.13;7.47;;;3.00;99.90;;;;;;5021186;28;20272;-82
2022/12/07 08:06:19;;;;;;;10.43;7.30;;;3.10;99.90;;;;;;5020979;28;20296;-82
2022/12/07 08:08:45;;;;;;;9.83;6.63;;;3.10;99.90;;;;;;5038767;28;20253;-83
2022/12/07 08:11:11;;;;;;;9.13;6.30;;;3.00;99.90;;;;;;5022140;28;20181;-82
2022/12/07 08:13:37;;;;;;;10.93;7.40;;;3.10;99.90;;;;;;5039152;28;20177;-81
2022/12/07 08:16:08;;;;;;;11.30;7.27;;;3.10;99.90;;;;;;5022018;28;20195;-81
2022/12/07 08:18:38;;;;;;;14.37;8.50;;;3.10;99.90;;;;;;5039588;28;20200;-82
2022/12/07 08:21:04;;;;;;;12.17;8.27;;;3.00;99.90;;;;;;5038904;28;20181;-82
2022/12/07 08:23:29;;;;;;;12.07;8.20;;;3.00;99.90;;;;;;5039191;28;20713;-83
2022/12/07 08:25:59;;;;;;;16.07;9.27;;;3.00;99.90;;;;;;5033517;28;20303;-81
2022/12/07 08:28:25;;;;;;;14.13;8.73;;;3.00;99.90;;;;;;5020972;28;20177;-82
2022/12/07 08:30:50;;;;;;;13.03;8.30;;;3.00;99.90;;;;;;5038520;28;20188;-85
2022/12/07 08:33:16;;;;;;;13.27;8.53;;;3.00;99.90;;;;;;5018106;28;20372;-84
2022/12/07 08:35:41;;;;;;;12.30;8.10;;;3.00;99.90;;;;;;5018507;28;20212;-84
2022/12/07 08:38:07;;;;;;;12.43;8.03;;;3.00;99.90;;;;;;5019008;28;20275;-82
2022/12/07 08:40:32;;;;;;;11.17;7.37;;;3.00;99.90;;;;;;5035875;28;20212;-80
2022/12/07 08:42:58;;;;;;;10.80;7.10;;;3.00;99.90;;;;;;5020368;28;20204;-82
2022/12/07 08:45:23;;;;;;;11.00;7.47;;;3.00;99.90;;;;;;5019229;28;20197;-82
2022/12/07 08:48:00;;;;;;;12.63;7.77;;;3.00;99.90;;;;;;5037064;28;20195;-82
2022/12/07 08:50:26;;;;;;;11.97;8.13;;;3.00;99.90;;;;;;5019511;28;20217;-82
2022/12/07 08:52:54;;;;;;;11.30;7.40;;;3.00;99.90;;;;;;5019381;28;20207;-82
2022/12/07 08:55:21;;;;;;;10.93;6.97;;;3.00;99.90;;;;;;5019436;28;20220;-82
2022/12/07 08:57:46;;;;;;;11.10;7.30;;;3.00;99.90;;;;;;5019448;28;20185;-82
2022/12/07 09:00:13;;;;;;;10.13;6.97;;;3.00;99.90;;;;;;5019507;28;20185;-82
2022/12/07 09:02:39;;;;;;;9.63;6.37;;;3.10;99.90;;;;;;5018941;28;20217;-82
2022/12/07 09:05:05;;;;;;;10.13;6.67;;;3.10;99.90;;;;;;5019502;28;20190;-82
2022/12/07 09:07:33;;;;;;;10.77;6.77;;;3.10;99.90;;;;;;5018341;28;20178;-83
2022/12/07 09:09:59;;;;;;;11.20;6.47;;;3.10;99.90;;;;;;5036685;28;20304;-82
2022/12/07 09:12:24;;;;;;;9.50;6.20;;;3.10;99.90;;;;;;5036652;28;20209;-82
2022/12/07 09:14:50;;;;;;;11.33;6.67;;;3.10;99.90;;;;;;5018828;28;20201;-82
2022/12/07 09:17:16;;;;;;;9.97;6.77;;;3.10;99.90;;;;;;5036976;28;20605;-82
2022/12/07 09:19:42;;;;;;;11.67;7.10;;;3.20;99.90;;;;;;5036834;28;20187;-82
2022/12/07 09:22:08;;;;;;;9.70;6.93;;;3.20;99.90;;;;;;5019200;28;20211;-84
2022/12/07 09:24:34;;;;;;;10.23;6.57;;;3.20;99.90;;;;;;5036772;28;20201;-82
2022/12/07 09:26:59;;;;;;;10.43;7.10;;;3.20;99.90;;;;;;5018873;28;20192;-83
2022/12/07 09:29:25;;;;;;;9.43;6.83;;;3.20;99.90;;;;;;5036289;28;20239;-82
2022/12/07 09:31:51;;;;;;;9.10;6.77;;;3.20;99.90;;;;;;5018906;28;20647;-83
2022/12/07 09:34:17;;;;;;;14.30;10.20;;;3.20;99.90;;;;;;5035966;28;20185;-82
2022/12/07 09:36:43;;;;;;;13.83;8.63;;;3.30;99.90;;;;;;5017886;28;20191;-82
2022/12/07 09:39:09;;;;;;;10.83;7.17;;;3.30;99.90;;;;;;5035519;28;20185;-82
2022/12/07 09:41:39;;;;;;;13.17;8.23;;;3.40;99.90;;;;;;5017460;28;20224;-81
2022/12/07 09:44:18;;;;;;;11.27;7.17;;;3.50;99.90;;;;;;5017628;28;20209;-82
2022/12/07 09:46:45;;;;;;;13.70;8.23;;;3.50;99.90;;;;;;5017846;28;20177;-82
2022/12/07 09:49:16;;;;;;;12.67;9.17;;;3.60;99.90;;;;;;5035640;28;20182;-83
2022/12/07 09:51:41;;;;;;;12.70;8.37;;;3.60;99.90;;;;;;5019583;28;20173;-82
2022/12/07 09:54:12;;;;;;;13.80;9.00;;;3.60;99.90;;;;;;5037132;28;20236;-82
2022/12/07 09:56:38;;;;;;;10.07;7.70;;;3.60;99.90;;;;;;5018303;28;20899;-82
2022/12/07 09:59:03;;;;;;;11.33;7.33;;;3.70;99.90;;;;;;5036097;28;20178;-81
2022/12/07 10:01:32;;;;;;;11.20;7.20;;;3.70;99.90;;;;;;5035704;28;20186;-84
2022/12/07 10:04:15;;;;;;;11.53;7.60;;;3.80;99.90;;;;;;5034663;28;20192;-82
2022/12/07 10:06:41;;;;;;;13.70;7.43;;;3.80;99.90;;;;;;5034344;28;20177;-82
2022/12/07 10:09:12;;;;;;;11.20;7.13;;;3.70;99.90;;;;;;5034880;28;20174;-81
2022/12/07 10:12:09;;;;;;;10.83;7.57;;;3.80;99.90;;;;;;5034183;28;20652;-82
2022/12/07 10:14:37;;;;;;;8.63;5.93;;;3.80;99.90;;;;;;5017174;28;20201;-81
2022/12/07 10:17:26;;;;;;;7.83;5.37;;;3.90;99.90;;;;;;5017838;28;20177;-80
2022/12/07 10:19:51;;;;;;;8.60;5.30;;;3.90;99.90;;;;;;5034806;28;20178;-81
2022/12/07 10:22:17;;;;;;;14.57;6.40;;;4.00;99.90;;;;;;5016721;28;20210;-80
2022/12/07 10:24:46;;;;;;;8.03;5.20;;;4.80;99.90;;;;;;5038491;28;20664;-79
2022/12/07 10:27:29;;;;;;;8.30;4.70;;;4.90;99.90;;;;;;5021065;28;20178;-78
2022/12/07 10:29:54;;;;;;;5.83;3.87;;;4.80;99.90;;;;;;5019318;28;20213;-83
2022/12/07 10:32:20;;;;;;;6.67;4.43;;;4.70;99.90;;;;;;5018771;28;20175;-83
2022/12/07 10:34:45;;;;;;;6.93;3.87;;;4.60;99.90;;;;;;5019569;28;20194;-83
2022/12/07 10:37:14;;;;;;;5.40;3.17;;;4.50;99.90;;;;;;5036997;28;20336;-84
2022/12/07 10:39:45;;;;;;;6.57;3.50;;;4.40;99.90;;;;;;5016347;28;20182;-82
2022/12/07 10:42:21;;;;;;;6.17;3.53;;;4.40;99.90;;;;;;5016913;28;20202;-82
2022/12/07 10:44:48;;;;;;;4.27;3.00;;;4.20;99.90;;;;;;5015878;28;20189;-82
2022/12/07 10:47:20;;;;;;;6.13;3.23;;;4.30;99.90;;;;;;5016690;28;20181;-83
2022/12/07 10:49:52;;;;;;;5.80;3.60;;;4.20;99.90;;;;;;5032171;28;20541;-82
2022/12/07 10:52:50;;;;;;;5.73;3.53;;;4.20;99.90;;;;;;5013958;28;20209;-83
2022/12/07 10:55:26;;;;;;;6.57;3.80;;;4.20;99.90;;;;;;4977380;28;20237;-83
2022/12/07 10:58:26;;;;;;;6.13;3.17;;;4.20;99.90;;;;;;5015284;28;20263;-81
2022/12/07 11:01:16;;;;;;;5.57;3.50;;;4.70;99.90;;;;;;5032340;28;20221;-83
2022/12/07 11:03:48;;;;;;;6.60;3.03;;;4.90;99.90;;;;;;5015171;28;20212;-85
2022/12/07 11:06:47;;;;;;;4.17;2.70;;;4.70;99.90;;;;;;5015497;28;20190;-83
2022/12/07 11:09:36;;;;;;;4.73;2.93;;;4.60;99.90;;;;;;5033135;28;20177;-81
2022/12/07 11:12:08;;;;;;;5.27;3.10;;;4.50;99.90;;;;;;5017002;28;20177;-82
2022/12/07 11:14:40;;;;;;;6.10;2.90;;;4.40;99.90;;;;;;5015621;28;20246;-83
2022/12/07 11:17:17;;;;;;;5.70;3.53;;;4.30;99.90;;;;;;5034640;28;20172;-81
2022/12/07 11:20:24;;;;;;;6.50;4.97;;;4.20;99.90;;;;;;5016150;28;20170;-83
2022/12/07 11:23:05;;;;;;;5.43;3.70;;;4.30;99.90;;;;;;5033862;28;20209;-83
2022/12/07 11:25:42;;;;;;;6.67;4.37;;;4.20;99.90;;;;;;5033057;28;20190;-83
2022/12/07 11:28:46;;;;;;;4.83;3.20;;;4.20;99.90;;;;;;5033749;28;20244;-83
2022/12/07 11:31:21;;;;;;;6.00;3.50;;;4.30;99.90;;;;;;5028225;28;20186;-83
2022/12/07 11:33:50;;;;;;;5.53;3.50;;;4.30;99.90;;;;;;5015419;28;20200;-82
2022/12/07 11:36:40;;;;;;;6.80;3.63;;;4.30;99.90;;;;;;5016143;28;20193;-83
2022/12/07 11:39:21;;;;;;;6.13;4.30;;;4.20;99.90;;;;;;5033956;28;20170;-82
2022/12/07 11:42:03;;;;;;;5.93;3.30;;;4.20;99.90;;;;;;5033324;28;20196;-82
2022/12/07 11:44:41;;;;;;;6.80;3.60;;;4.20;99.90;;;;;;5034666;28;20151;-83
2022/12/07 11:47:38;;;;;;;5.97;3.43;;;4.20;99.90;;;;;;5035387;28;20170;-83
2022/12/07 11:50:37;;;;;;;5.47;3.40;;;4.20;99.90;;;;;;5016539;28;20174;-85
2022/12/07 11:53:08;;;;;;;7.37;4.20;;;4.20;99.90;;;;;;5016095;28;20177;-83
2022/12/07 11:55:57;;;;;;;8.47;6.23;;;4.20;99.90;;;;;;5016040;28;20298;-82
2022/12/07 11:58:41;;;;;;;7.03;3.53;;;4.20;99.90;;;;;;5026030;28;20174;-81
2022/12/07 12:01:20;;;;;;;7.50;3.80;;;4.60;99.90;;;;;;5032646;28;20249;-82
2022/12/07 12:03:53;;;;;;;5.03;3.57;;;5.10;99.90;;;;;;5014295;28;20572;-81
2022/12/07 12:06:21;;;;;;;5.00;3.63;;;5.70;99.90;;;;;;5012742;28;20191;-81
2022/12/07 12:09:10;;;;;;;4.23;2.93;;;5.90;99.90;;;;;;5011126;28;20178;-81
2022/12/07 12:11:54;;;;;;;6.27;3.33;;;5.80;99.90;;;;;;5014338;28;20214;-82
2022/12/07 12:14:40;;;;;;;4.93;2.97;;;5.90;99.90;;;;;;5032534;28;20170;-82
2022/12/07 12:17:31;;;;;;;7.23;3.57;;;5.80;99.90;;;;;;5033276;28;20637;-84
2022/12/07 12:20:19;;;;;;;7.77;3.20;;;5.80;99.90;;;;;;5016031;28;20171;-80
2022/12/07 12:22:52;;;;;;;4.67;3.13;;;5.40;99.90;;;;;;5038265;28;20576;-79
2022/12/07 12:25:23;;;;;;;4.33;3.33;;;5.40;99.90;;;;;;5021818;28;20227;-80
2022/12/07 12:27:51;;;;;;;5.80;2.97;;;5.40;99.90;;;;;;5020427;28;20253;-79
2022/12/07 12:30:29;;;;;;;4.43;3.00;;;5.20;99.90;;;;;;5019855;28;20180;-79
2022/12/07 12:33:03;;;;;;;6.13;3.73;;;5.00;99.90;;;;;;5037345;28;20185;-78
2022/12/07 12:35:35;;;;;;;7.23;3.77;;;4.90;99.90;;;;;;5038214;28;20636;-83
2022/12/07 12:38:25;;;;;;;10.47;6.00;;;4.70;99.90;;;;;;5017277;28;20196;-84
2022/12/07 12:40:51;;;;;;;6.37;3.43;;;4.50;99.90;;;;;;5018679;28;20184;-81
2022/12/07 12:43:40;;;;;;;6.17;3.33;;;4.50;99.90;;;;;;5017725;28;20680;-80
2022/12/07 12:46:51;;;;;;;11.43;5.93;;;4.40;99.90;;;;;;5036426;28;20250;-83
2022/12/07 12:49:19;;;;;;;44.20;17.23;;;4.40;99.90;;;;;;4920439;29;20178;-83
2022/12/07 12:51:58;;;;;;;6.50;3.50;;;4.30;99.90;;;;;;5024316;28;20199;-83
2022/12/07 12:54:25;;;;;;;8.33;3.83;;;4.30;99.90;;;;;;5018518;28;20182;-83
2022/12/07 12:56:59;;;;;;;3.57;2.63;;;4.20;99.90;;;;;;5052232;22;20321;-82
2022/12/07 12:59:33;;;;;;;19.70;8.23;;;4.30;99.90;;;;;;5036308;28;20197;-82
2022/12/07 13:02:21;;;;;;;9.07;4.93;;;4.30;99.90;;;;;;5037346;28;20198;-83
2022/12/07 13:04:53;;;;;;;5.47;3.57;;;4.30;99.90;;;;;;5016777;28;20205;-82
2022/12/07 13:07:46;;;;;;;;;;;;;;;;;;;;;
2022/12/07 13:10:30;;;;;;;8.73;3.93;;;4.40;99.90;;;;;;5047090;28;20181;-82